createdAt,value
2022-08-20T04:18:25.595Z,5.62
2022-08-20T04:19:21.385Z,5.62
2022-08-20T04:20:23.778Z,5.62
2022-08-20T04:21:24.748Z,5.62
2022-08-20T04:22:26.160Z,5.62
2022-08-20T04:23:27.109Z,5.62
2022-08-20T04:25:30.136Z,5.62
2022-08-20T04:26:32.390Z,5.62
2022-08-20T04:27:33.545Z,5.62
2022-08-20T04:28:34.974Z,5.62
2022-08-20T04:29:36.150Z,11.25
2022-08-20T04:30:37.343Z,11.25
2022-08-20T04:31:45.517Z,11.25
2022-08-20T04:32:41.128Z,11.25
2022-08-20T04:33:42.081Z,11.25
2022-08-20T04:34:44.207Z,11.25
2022-08-20T04:35:46.021Z,11.25
2022-08-20T04:36:47.123Z,11.25
2022-08-20T04:37:49.413Z,11.25
2022-08-20T04:38:51.568Z,11.25
2022-08-20T04:39:53.844Z,11.25
2022-08-20T04:40:56.281Z,11.25
2022-08-20T04:41:57.550Z,11.25
2022-08-20T04:42:58.565Z,11.25
2022-08-20T04:44:01.915Z,16.87
2022-08-20T04:45:02.160Z,16.87
2022-08-20T04:46:03.342Z,16.87
2022-08-20T04:47:04.418Z,16.87
2022-08-20T04:48:05.582Z,16.87
2022-08-20T04:49:07.709Z,16.87
2022-08-20T04:50:09.373Z,16.87
2022-08-20T04:51:10.713Z,16.87
2022-08-20T04:52:11.783Z,16.87
2022-08-20T04:53:13.113Z,16.87
2022-08-20T04:54:14.366Z,16.87
2022-08-20T04:55:21.591Z,16.87
2022-08-20T04:56:17.387Z,16.87
2022-08-20T04:57:19.513Z,16.87
2022-08-20T04:58:21.635Z,16.87
2022-08-20T04:59:29.673Z,16.87
2022-08-20T05:00:24.801Z,16.87
2022-08-20T05:01:33.085Z,16.87
2022-08-20T05:02:28.268Z,22.50
2022-08-20T05:03:30.379Z,22.50
2022-08-20T05:04:31.551Z,22.50
2022-08-20T05:05:32.512Z,22.50
2022-08-20T05:06:34.632Z,28.12
2022-08-20T05:07:36.779Z,28.12
2022-08-20T05:08:38.913Z,28.12
2022-08-20T05:09:43.753Z,28.12
2022-08-20T05:10:42.952Z,28.12
2022-08-20T05:11:44.683Z,28.12
2022-08-20T05:12:56.842Z,28.12
2022-08-20T05:13:48.180Z,33.75
2022-08-20T05:14:48.387Z,33.75
2022-08-20T05:15:49.977Z,33.75
2022-08-20T05:16:50.947Z,33.75
2022-08-20T05:17:52.064Z,33.75
2022-08-20T05:18:53.146Z,33.75
2022-08-20T05:19:54.747Z,33.75
2022-08-20T05:20:56.860Z,33.75
2022-08-20T05:21:58.972Z,39.37
2022-08-20T05:23:00.564Z,39.37
2022-08-20T05:24:01.600Z,39.37
2022-08-20T05:25:03.731Z,45.00
2022-08-20T05:26:10.989Z,45.00
2022-08-20T05:27:06.663Z,45.00
2022-08-20T05:28:07.829Z,45.00
2022-08-20T05:29:09.065Z,45.00
2022-08-20T05:30:13.441Z,50.62
2022-08-20T05:31:13.558Z,50.62
2022-08-20T05:32:14.785Z,50.62
2022-08-20T05:33:15.941Z,50.62
2022-08-20T05:35:19.811Z,50.62
2022-08-20T05:37:23.088Z,56.25
2022-08-20T05:38:25.213Z,56.25
2022-08-20T05:39:27.329Z,61.87
2022-08-20T05:40:29.495Z,61.87
2022-08-20T05:41:30.780Z,61.87
2022-08-20T05:42:32.949Z,61.87
2022-08-20T05:43:35.070Z,61.87
2022-08-20T05:44:37.392Z,61.87
2022-08-20T05:45:38.350Z,61.87
2022-08-20T05:46:39.994Z,61.87
2022-08-20T05:47:42.951Z,67.50
2022-08-20T05:48:44.048Z,67.50
2022-08-20T05:49:46.372Z,67.50
2022-08-20T05:50:47.751Z,67.50
2022-08-20T05:51:55.947Z,61.87
2022-08-20T05:52:51.186Z,61.87
2022-08-20T05:53:59.614Z,61.87
2022-08-20T05:54:53.798Z,67.50
2022-08-20T05:55:54.998Z,67.50
2022-08-20T05:57:03.172Z,67.50
2022-08-20T05:57:58.624Z,67.50
2022-08-20T06:00:00.814Z,67.50
2022-08-20T06:01:02.534Z,67.50
2022-08-20T06:02:09.788Z,73.12
2022-08-20T06:03:04.904Z,73.12
2022-08-20T06:04:07.235Z,73.12
2022-08-20T06:05:14.484Z,73.12
2022-08-20T06:06:18.269Z,73.12
2022-08-20T06:07:12.243Z,78.75
2022-08-20T06:08:13.206Z,78.75
2022-08-20T06:09:14.194Z,78.75
2022-08-20T06:10:15.165Z,84.37
2022-08-20T06:11:17.307Z,84.37
2022-08-20T06:12:18.510Z,84.37
2022-08-20T06:13:20.795Z,90.00
2022-08-20T06:14:23.115Z,90.00
2022-08-20T06:15:24.517Z,95.62
2022-08-20T06:16:32.653Z,95.62
2022-08-20T06:17:27.771Z,95.62
2022-08-20T06:18:30.119Z,90.00
2022-08-20T06:19:32.351Z,95.62
2022-08-20T06:20:33.007Z,95.62
2022-08-20T06:21:35.201Z,101.25
2022-08-20T06:22:36.214Z,101.25
2022-08-20T06:23:54.179Z,101.25
2022-08-20T06:24:39.691Z,106.87
2022-08-20T06:25:40.738Z,106.87
2022-08-20T06:26:43.078Z,112.50
2022-08-20T06:27:44.070Z,112.50
2022-08-20T06:28:45.458Z,118.12
2022-08-20T06:29:46.406Z,118.12
2022-08-20T06:30:47.451Z,118.12
2022-08-20T06:31:48.643Z,123.75
2022-08-20T06:32:50.758Z,123.75
2022-08-20T06:33:52.413Z,123.75
2022-08-20T06:35:00.587Z,129.37
2022-08-20T06:35:56.689Z,129.37
2022-08-20T06:36:57.944Z,129.37
2022-08-20T06:38:00.073Z,129.37
2022-08-20T06:39:02.207Z,129.37
2022-08-20T06:40:04.383Z,123.75
2022-08-20T06:41:05.729Z,123.75
2022-08-20T06:42:07.387Z,123.75
2022-08-20T06:43:09.511Z,123.75
2022-08-20T06:44:10.739Z,123.75
2022-08-20T06:45:12.898Z,123.75
2022-08-20T06:46:14.055Z,123.75
2022-08-20T06:47:15.332Z,123.75
2022-08-20T06:48:17.468Z,123.75
2022-08-20T06:49:19.599Z,123.75
2022-08-20T06:50:21.001Z,123.75
2022-08-20T06:51:22.237Z,123.75
2022-08-20T06:52:29.917Z,123.75
2022-08-20T06:53:26.842Z,123.75
2022-08-20T06:54:29.346Z,129.37
2022-08-20T06:55:29.449Z,129.37
2022-08-20T06:56:31.671Z,129.37
2022-08-20T06:57:33.283Z,123.75
2022-08-20T06:58:37.582Z,123.75
2022-08-20T06:59:37.203Z,123.75
2022-08-20T07:00:39.364Z,123.75
2022-08-20T07:01:41.589Z,123.75
2022-08-20T07:02:49.854Z,123.75
2022-08-20T07:03:54.926Z,129.37
2022-08-20T07:04:46.297Z,129.37
2022-08-20T07:05:47.527Z,129.37
2022-08-20T07:06:48.799Z,129.37
2022-08-20T07:07:50.926Z,129.37
2022-08-20T07:08:52.900Z,129.37
2022-08-20T07:09:55.033Z,129.37
2022-08-20T07:10:57.224Z,135.00
2022-08-20T07:11:59.356Z,135.00
2022-08-20T07:13:01.505Z,140.62
2022-08-20T07:14:02.536Z,140.62
2022-08-20T07:15:04.705Z,146.25
2022-08-20T07:16:06.059Z,151.87
2022-08-20T07:17:12.216Z,157.50
2022-08-20T07:18:09.255Z,163.12
2022-08-20T07:19:10.247Z,168.75
2022-08-20T07:20:12.366Z,174.37
2022-08-20T07:21:20.644Z,174.37
2022-08-20T07:22:16.998Z,180.00
2022-08-20T07:23:25.181Z,185.62
2022-08-20T07:24:20.344Z,185.62
2022-08-20T07:25:22.560Z,185.62
2022-08-20T07:26:23.513Z,185.62
2022-08-20T07:27:25.694Z,185.62
2022-08-20T07:28:27.868Z,180.00
2022-08-20T07:29:29.088Z,180.00
2022-08-20T07:30:30.707Z,174.37
2022-08-20T07:31:34.940Z,174.37
2022-08-20T07:32:36.829Z,168.75
2022-08-20T07:33:36.839Z,168.75
2022-08-20T07:34:38.455Z,168.75
2022-08-20T07:35:39.704Z,168.75
2022-08-20T07:36:41.896Z,168.75
2022-08-20T07:37:49.356Z,174.37
2022-08-20T07:38:44.546Z,174.37
2022-08-20T07:39:46.699Z,174.37
2022-08-20T07:40:47.919Z,174.37
2022-08-20T07:41:56.533Z,168.75
2022-08-20T07:42:51.005Z,168.75
2022-08-20T07:43:53.221Z,163.12
2022-08-20T07:44:55.342Z,163.12
2022-08-20T07:45:56.527Z,157.50
2022-08-20T07:46:58.565Z,157.50
2022-08-20T07:48:00.386Z,151.87
2022-08-20T07:49:01.574Z,146.25
2022-08-20T07:50:02.729Z,140.62
2022-08-20T07:51:04.929Z,135.00
2022-08-20T07:52:13.201Z,135.00
2022-08-20T07:53:08.354Z,129.37
2022-08-20T07:54:09.303Z,129.37
2022-08-20T07:55:10.290Z,129.37
2022-08-20T07:56:18.634Z,135.00
2022-08-20T07:57:13.902Z,135.00
2022-08-20T07:58:15.142Z,135.00
2022-08-20T07:59:17.274Z,140.62
2022-08-20T08:00:18.835Z,140.62
2022-08-20T08:01:21.029Z,140.62
2022-08-20T08:02:28.190Z,140.62
2022-08-20T08:03:23.332Z,140.62
2022-08-20T08:04:25.764Z,140.62
2022-08-20T08:05:26.368Z,140.62
2022-08-20T08:06:30.842Z,140.62
2022-08-20T08:07:30.395Z,140.62
2022-08-20T08:08:32.516Z,140.62
2022-08-20T08:09:33.687Z,140.62
2022-08-20T08:10:41.169Z,140.62
2022-08-20T08:11:46.991Z,140.62
2022-08-20T08:12:37.795Z,140.62
2022-08-20T08:13:39.931Z,135.00
2022-08-20T08:14:42.448Z,135.00
2022-08-20T08:15:43.415Z,135.00
2022-08-20T08:16:45.677Z,135.00
2022-08-20T08:17:47.874Z,135.00
2022-08-20T08:18:49.996Z,129.37
2022-08-20T08:19:50.969Z,129.37
2022-08-20T08:20:53.090Z,129.37
2022-08-20T08:21:55.220Z,135.00
2022-08-20T08:22:57.563Z,135.00
2022-08-20T08:24:00.564Z,135.00
2022-08-20T08:25:00.420Z,140.62
2022-08-20T08:26:01.388Z,140.62
2022-08-20T08:27:09.801Z,140.62
2022-08-20T08:28:04.955Z,140.62
2022-08-20T08:29:13.208Z,140.62
2022-08-20T08:30:08.334Z,146.25
2022-08-20T08:31:10.538Z,146.25
2022-08-20T08:32:11.493Z,146.25
2022-08-20T08:33:12.979Z,146.25
2022-08-20T08:34:15.332Z,151.87
2022-08-20T08:35:17.022Z,151.87
2022-08-20T08:36:19.147Z,151.87
2022-08-20T08:37:20.311Z,157.50
2022-08-20T08:38:22.432Z,157.50
2022-08-20T08:39:24.581Z,157.50
2022-08-20T08:40:26.816Z,163.12
2022-08-20T08:41:27.998Z,163.12
2022-08-20T08:42:30.163Z,168.75
2022-08-20T08:43:32.573Z,174.37
2022-08-20T08:44:39.760Z,174.37
2022-08-20T08:45:34.842Z,174.37
2022-08-20T08:46:36.481Z,174.37
2022-08-20T08:47:38.699Z,174.37
2022-08-20T08:48:39.775Z,180.00
2022-08-20T08:49:41.120Z,180.00
2022-08-20T08:50:54.334Z,180.00
2022-08-20T08:51:44.733Z,180.00
2022-08-20T08:52:45.728Z,185.62
2022-08-20T08:53:46.679Z,180.00
2022-08-20T08:54:54.858Z,185.62
2022-08-20T08:55:50.000Z,185.62
2022-08-20T08:56:51.322Z,180.00
2022-08-20T08:57:53.541Z,185.62
2022-08-20T08:58:55.697Z,185.62
2022-08-20T09:00:03.812Z,185.62
2022-08-20T09:01:02.071Z,191.25
2022-08-20T09:02:00.322Z,185.62
2022-08-20T09:03:01.540Z,191.25
2022-08-20T09:04:02.681Z,191.25
2022-08-20T09:05:04.999Z,196.87
2022-08-20T09:06:06.389Z,202.50
2022-08-20T09:07:07.825Z,202.50
2022-08-20T09:08:17.138Z,208.12
2022-08-20T09:09:16.198Z,208.12
2022-08-20T09:10:11.315Z,213.75
2022-08-20T09:11:13.442Z,219.37
2022-08-20T09:12:21.638Z,225.00
2022-08-20T09:13:16.752Z,230.62
2022-08-20T09:14:18.880Z,230.62
2022-08-20T09:15:21.003Z,236.25
2022-08-20T09:16:23.150Z,241.87
2022-08-20T09:17:25.483Z,247.50
2022-08-20T09:18:27.611Z,253.12
2022-08-20T09:19:29.068Z,258.75
2022-08-20T09:20:30.031Z,258.75
2022-08-20T09:21:30.989Z,258.75
2022-08-20T09:22:32.070Z,258.75
2022-08-20T09:23:39.089Z,258.75
2022-08-20T09:24:34.692Z,264.37
2022-08-20T09:25:35.642Z,270.00
2022-08-20T09:26:39.154Z,275.62
2022-08-20T09:27:39.152Z,258.75
2022-08-20T09:28:41.359Z,253.12
2022-08-20T09:29:43.504Z,241.87
2022-08-20T09:30:44.485Z,236.25
2022-08-20T09:31:46.327Z,236.25
2022-08-20T09:32:47.653Z,213.75
2022-08-20T09:33:49.781Z,202.50
2022-08-20T09:34:52.000Z,202.50
2022-08-20T09:35:53.599Z,202.50
2022-08-20T09:36:55.719Z,202.50
2022-08-20T09:37:58.173Z,202.50
2022-08-20T09:38:59.217Z,202.50
2022-08-20T09:40:00.468Z,191.25
2022-08-20T09:41:01.584Z,191.25
2022-08-20T09:42:03.706Z,202.50
2022-08-20T09:43:11.867Z,230.62
2022-08-20T09:44:07.200Z,247.50
2022-08-20T09:45:11.208Z,253.12
2022-08-20T09:46:10.268Z,253.12
2022-08-20T09:47:11.248Z,253.12
2022-08-20T09:48:13.373Z,258.75
2022-08-20T09:49:14.975Z,258.75
2022-08-20T09:50:17.161Z,258.75
2022-08-20T09:51:19.396Z,258.75
2022-08-20T09:52:20.306Z,258.75
2022-08-20T09:53:22.170Z,253.12
2022-08-20T09:54:23.158Z,253.12
2022-08-20T09:55:25.329Z,253.12
2022-08-20T09:56:27.445Z,253.12
2022-08-20T09:57:29.616Z,253.12
2022-08-20T09:58:32.010Z,253.12
2022-08-20T09:59:32.968Z,253.12
2022-08-20T10:00:41.349Z,247.50
2022-08-20T10:01:36.480Z,241.87
2022-08-20T10:02:37.697Z,236.25
2022-08-20T10:03:41.814Z,236.25
2022-08-20T10:04:41.850Z,230.62
2022-08-20T10:05:43.480Z,225.00
2022-08-20T10:06:45.617Z,225.00
2022-08-20T10:07:47.763Z,219.37
2022-08-20T10:08:49.069Z,219.37
2022-08-20T10:09:51.235Z,213.75
2022-08-20T10:10:52.868Z,213.75
2022-08-20T10:11:53.824Z,213.75
2022-08-20T10:12:55.232Z,213.75
2022-08-20T10:13:56.246Z,208.12
2022-08-20T10:14:57.439Z,208.12
2022-08-20T10:15:59.770Z,202.50
2022-08-20T10:17:00.799Z,202.50
2022-08-20T10:18:02.008Z,196.87
2022-08-20T10:19:04.138Z,196.87
2022-08-20T10:20:06.258Z,196.87
2022-08-20T10:21:07.969Z,191.25
2022-08-20T10:22:10.157Z,191.25
2022-08-20T10:23:11.328Z,191.25
2022-08-20T10:24:12.687Z,185.62
2022-08-20T10:25:14.909Z,191.25
2022-08-20T10:26:16.258Z,191.25
2022-08-20T10:27:18.387Z,191.25
2022-08-20T10:28:20.514Z,191.25
2022-08-20T10:29:22.632Z,191.25
2022-08-20T10:31:25.598Z,191.25
2022-08-20T10:32:26.838Z,191.25
2022-08-20T10:33:27.793Z,191.25
2022-08-20T10:34:28.780Z,191.25
2022-08-20T10:35:36.322Z,191.25
2022-08-20T10:36:31.513Z,191.25
2022-08-20T10:37:32.697Z,191.25
2022-08-20T10:38:34.672Z,196.87
2022-08-20T10:39:37.030Z,196.87
2022-08-20T10:40:38.089Z,196.87
2022-08-20T10:41:40.218Z,202.50
2022-08-20T10:42:42.783Z,202.50
2022-08-20T10:43:42.972Z,208.12
2022-08-20T10:44:44.329Z,208.12
2022-08-20T10:45:45.501Z,213.75
2022-08-20T10:46:47.639Z,213.75
2022-08-20T10:47:49.844Z,219.37
2022-08-20T10:48:51.968Z,225.00
2022-08-20T10:49:54.151Z,230.62
2022-08-20T10:51:56.874Z,247.50
2022-08-20T10:52:58.525Z,253.12
2022-08-20T10:54:00.653Z,258.75
2022-08-20T10:55:01.827Z,258.75
2022-08-20T10:56:15.019Z,264.37
2022-08-20T10:57:05.698Z,270.00
2022-08-20T10:58:07.862Z,281.25
2022-08-20T10:59:10.348Z,286.87
2022-08-20T11:00:17.373Z,292.50
2022-08-20T11:01:12.541Z,303.75
2022-08-20T11:02:14.776Z,309.37
2022-08-20T11:03:14.877Z,315.00
2022-08-20T11:04:17.011Z,320.62
2022-08-20T11:05:18.207Z,320.62
2022-08-20T11:06:19.217Z,326.25
2022-08-20T11:07:21.429Z,326.25
2022-08-20T11:08:34.474Z,326.25
2022-08-20T11:09:24.744Z,331.87
2022-08-20T11:10:25.743Z,337.50
2022-08-20T11:11:27.234Z,337.50
2022-08-20T11:12:28.186Z,343.12
2022-08-20T11:13:29.828Z,343.12
2022-08-20T11:14:32.164Z,343.12
2022-08-20T11:15:33.150Z,343.12
2022-08-20T11:16:35.275Z,348.75
2022-08-20T11:17:37.389Z,348.75
2022-08-20T11:18:41.767Z,348.75
2022-08-20T11:19:41.367Z,348.75
2022-08-20T11:20:43.532Z,354.37
2022-08-20T11:21:44.909Z,354.37
2022-08-20T11:22:47.029Z,360.00
2022-08-20T11:23:49.179Z,360.00
2022-08-20T11:24:51.392Z,360.00
2022-08-20T11:25:52.572Z,360.00
2022-08-20T11:26:54.690Z,360.00
2022-08-20T11:27:57.061Z,354.37
2022-08-20T11:28:58.226Z,354.37
2022-08-20T11:29:59.422Z,354.37
2022-08-20T11:31:01.595Z,354.37
2022-08-20T11:32:03.744Z,354.37
2022-08-20T11:33:05.982Z,360.00
2022-08-20T11:34:12.097Z,360.00
2022-08-20T11:35:24.937Z,365.62
2022-08-20T11:36:10.639Z,365.62
2022-08-20T11:37:11.593Z,360.00
2022-08-20T11:38:12.991Z,365.62
2022-08-20T11:39:15.118Z,371.25
2022-08-20T11:40:17.282Z,376.87
2022-08-20T11:41:18.501Z,376.87
2022-08-20T11:42:20.824Z,376.87
2022-08-20T11:43:22.021Z,382.50
2022-08-20T11:44:22.988Z,382.50
2022-08-20T11:45:25.106Z,382.50
2022-08-20T11:46:32.205Z,382.50
2022-08-20T11:47:27.319Z,388.12
2022-08-20T11:48:29.438Z,393.75
2022-08-20T11:49:37.126Z,388.12
2022-08-20T11:50:32.325Z,382.50
2022-08-20T11:51:33.606Z,382.50
2022-08-20T11:52:35.872Z,376.87
2022-08-20T11:53:36.820Z,376.87
2022-08-20T11:54:38.805Z,371.25
2022-08-20T11:55:40.188Z,376.87
2022-08-20T11:56:42.673Z,376.87
2022-08-20T11:57:43.517Z,388.12
2022-08-20T11:58:44.472Z,393.75
2022-08-20T11:59:45.648Z,399.37
2022-08-20T12:00:47.124Z,421.87
2022-08-20T12:02:03.138Z,433.12
2022-08-20T12:02:50.694Z,450.00
2022-08-20T12:03:51.051Z,466.87
2022-08-20T12:04:53.168Z,466.87
2022-08-20T12:05:55.555Z,483.75
2022-08-20T12:06:56.855Z,483.75
2022-08-20T12:07:58.249Z,478.12
2022-08-20T12:09:00.432Z,483.75
2022-08-20T12:10:01.471Z,483.75
2022-08-20T12:11:02.507Z,472.50
2022-08-20T12:12:04.712Z,455.62
2022-08-20T12:13:13.142Z,438.75
2022-08-20T12:14:08.383Z,433.12
2022-08-20T12:15:09.647Z,421.87
2022-08-20T12:16:11.805Z,410.62
2022-08-20T12:17:13.933Z,399.37
2022-08-20T12:18:16.093Z,393.75
2022-08-20T12:19:18.175Z,393.75
2022-08-20T12:20:19.284Z,388.12
2022-08-20T12:21:21.423Z,388.12
2022-08-20T12:22:25.280Z,388.12
2022-08-20T12:23:24.137Z,388.12
2022-08-20T12:24:25.300Z,382.50
2022-08-20T12:25:33.772Z,382.50
2022-08-20T12:26:28.897Z,371.25
2022-08-20T12:27:37.193Z,365.62
2022-08-20T12:28:32.302Z,365.62
2022-08-20T12:29:40.842Z,365.62
2022-08-20T12:30:36.171Z,371.25
2022-08-20T12:31:44.352Z,365.62
2022-08-20T12:32:39.472Z,371.25
2022-08-20T12:33:41.592Z,371.25
2022-08-20T12:34:43.961Z,382.50
2022-08-20T12:35:45.132Z,388.12
2022-08-20T12:36:46.094Z,388.12
2022-08-20T12:37:48.443Z,371.25
2022-08-20T12:38:50.628Z,360.00
2022-08-20T12:39:51.913Z,354.37
2022-08-20T12:40:54.152Z,360.00
2022-08-20T12:41:55.410Z,376.87
2022-08-20T12:42:57.726Z,393.75
2022-08-20T12:43:59.084Z,405.00
2022-08-20T12:46:02.998Z,410.62
2022-08-20T12:47:05.206Z,410.62
2022-08-20T12:48:06.163Z,421.87
2022-08-20T12:49:08.280Z,438.75
2022-08-20T12:50:11.044Z,461.25
2022-08-20T12:51:11.992Z,450.00
2022-08-20T12:52:14.124Z,444.37
2022-08-20T12:53:16.259Z,450.00
2022-08-20T12:54:18.346Z,444.37
2022-08-20T12:55:20.494Z,444.37
2022-08-20T12:56:28.194Z,450.00
2022-08-20T12:57:23.536Z,478.12
2022-08-20T12:58:25.660Z,495.00
2022-08-20T13:00:28.561Z,506.25
2022-08-20T13:01:29.911Z,489.37
2022-08-20T13:02:30.921Z,478.12
2022-08-20T13:03:33.045Z,455.62
2022-08-20T13:04:35.300Z,444.37
2022-08-20T13:05:36.478Z,421.87
2022-08-20T13:06:37.449Z,410.62
2022-08-20T13:07:38.406Z,399.37
2022-08-20T13:08:40.596Z,393.75
2022-08-20T13:09:41.856Z,388.12
2022-08-20T13:10:42.815Z,388.12
2022-08-20T13:11:43.774Z,393.75
2022-08-20T13:12:44.745Z,393.75
2022-08-20T13:13:45.696Z,393.75
2022-08-20T13:14:46.711Z,399.37
2022-08-20T13:15:55.108Z,399.37
2022-08-20T13:16:50.221Z,405.00
2022-08-20T13:17:51.992Z,405.00
2022-08-20T13:18:54.112Z,405.00
2022-08-20T13:19:55.286Z,399.37
2022-08-20T13:20:56.451Z,393.75
2022-08-20T13:21:57.575Z,388.12
2022-08-20T13:22:59.695Z,382.50
2022-08-20T13:24:00.669Z,382.50
2022-08-20T13:25:01.714Z,371.25
2022-08-20T13:26:03.843Z,354.37
2022-08-20T13:27:05.963Z,337.50
2022-08-20T13:28:08.095Z,326.25
2022-08-20T13:29:10.217Z,315.00
2022-08-20T13:30:12.606Z,309.37
2022-08-20T13:31:13.531Z,303.75
2022-08-20T13:32:15.738Z,303.75
2022-08-20T13:33:17.858Z,298.12
2022-08-20T13:34:20.011Z,298.12
2022-08-20T13:35:20.990Z,292.50
2022-08-20T13:36:23.132Z,292.50
2022-08-20T13:37:25.897Z,286.87
2022-08-20T13:38:26.987Z,286.87
2022-08-20T13:39:29.410Z,281.25
2022-08-20T13:40:30.458Z,275.62
2022-08-20T13:41:32.541Z,270.00
2022-08-20T13:42:34.663Z,264.37
2022-08-20T13:43:35.928Z,258.75
2022-08-20T13:44:38.116Z,258.75
2022-08-20T13:45:40.327Z,247.50
2022-08-20T13:46:41.511Z,241.87
2022-08-20T13:47:42.467Z,241.87
2022-08-20T13:48:44.687Z,236.25
2022-08-20T13:49:45.641Z,236.25
2022-08-20T13:50:47.770Z,230.62
2022-08-20T13:51:48.941Z,225.00
2022-08-20T13:52:51.168Z,225.00
2022-08-20T13:53:52.364Z,219.37
2022-08-20T13:54:54.640Z,219.37
2022-08-20T13:55:55.832Z,219.37
2022-08-20T13:56:57.004Z,213.75
2022-08-20T13:57:59.129Z,213.75
2022-08-20T13:59:01.255Z,213.75
2022-08-20T14:00:03.488Z,213.75
2022-08-20T14:01:04.736Z,208.12
2022-08-20T14:02:07.446Z,208.12
2022-08-20T14:03:07.358Z,208.12
2022-08-20T14:04:08.687Z,208.12
2022-08-20T14:05:09.845Z,208.12
2022-08-20T14:06:11.452Z,202.50
2022-08-20T14:07:12.445Z,202.50
2022-08-20T14:08:14.568Z,202.50
2022-08-20T14:09:16.699Z,202.50
2022-08-20T14:10:18.855Z,202.50
2022-08-20T14:11:20.041Z,202.50
2022-08-20T14:12:21.254Z,202.50
2022-08-20T14:13:22.441Z,208.12
2022-08-20T14:14:24.625Z,208.12
2022-08-20T14:15:26.745Z,202.50
2022-08-20T14:16:32.184Z,202.50
2022-08-20T14:17:31.121Z,202.50
2022-08-20T14:18:31.312Z,202.50
2022-08-20T14:19:33.400Z,208.12
2022-08-20T14:20:34.626Z,208.12
2022-08-20T14:21:36.247Z,208.12
2022-08-20T14:22:38.647Z,202.50
2022-08-20T14:23:39.826Z,202.50
2022-08-20T14:24:41.914Z,191.25
2022-08-20T14:25:49.181Z,191.25
2022-08-20T14:26:44.376Z,185.62
2022-08-20T14:27:46.530Z,185.62
2022-08-20T14:28:48.659Z,185.62
2022-08-20T14:29:50.871Z,185.62
2022-08-20T14:30:53.809Z,185.62
2022-08-20T14:31:54.868Z,180.00
2022-08-20T14:32:57.489Z,174.37
2022-08-20T14:33:58.793Z,168.75
2022-08-20T14:35:00.950Z,163.12
2022-08-20T14:36:02.146Z,163.12
2022-08-20T14:37:04.531Z,163.12
2022-08-20T14:38:05.480Z,163.12
2022-08-20T14:39:06.597Z,168.75
2022-08-20T14:40:08.130Z,180.00
2022-08-20T14:41:10.368Z,185.62
2022-08-20T14:42:12.751Z,191.25
2022-08-20T14:43:13.723Z,202.50
2022-08-20T14:44:15.848Z,208.12
2022-08-20T14:45:17.033Z,213.75
2022-08-20T14:46:19.157Z,213.75
2022-08-20T14:47:21.448Z,213.75
2022-08-20T14:48:22.601Z,213.75
2022-08-20T14:49:23.873Z,208.12
2022-08-20T14:50:25.972Z,202.50
2022-08-20T14:51:28.104Z,202.50
2022-08-20T14:52:36.576Z,196.87
2022-08-20T14:53:40.491Z,191.25
2022-08-20T14:54:33.843Z,185.62
2022-08-20T14:55:35.951Z,185.62
2022-08-20T14:56:38.086Z,180.00
2022-08-20T14:57:45.755Z,174.37
2022-08-20T14:58:40.883Z,163.12
2022-08-20T14:59:43.205Z,157.50
2022-08-20T15:00:44.458Z,146.25
2022-08-20T15:01:46.621Z,140.62
2022-08-20T15:02:48.753Z,140.62
2022-08-20T15:03:51.119Z,135.00
2022-08-20T15:04:54.444Z,140.62
2022-08-20T15:05:54.278Z,146.25
2022-08-20T15:06:56.512Z,146.25
2022-08-20T15:07:57.652Z,151.87
2022-08-20T15:08:59.132Z,151.87
2022-08-20T15:10:00.109Z,157.50
2022-08-20T15:11:01.069Z,151.87
2022-08-20T15:12:02.258Z,151.87
2022-08-20T15:13:03.423Z,151.87
2022-08-20T15:14:04.663Z,146.25
2022-08-20T15:15:15.256Z,146.25
2022-08-20T15:16:09.330Z,140.62
2022-08-20T15:18:17.830Z,123.75
2022-08-20T15:19:13.233Z,118.12
2022-08-20T15:20:20.444Z,112.50
2022-08-20T15:21:20.145Z,112.50
2022-08-20T15:22:16.826Z,112.50
2022-08-20T15:23:18.501Z,112.50
2022-08-20T15:24:20.660Z,112.50
2022-08-20T15:25:22.786Z,112.50
2022-08-20T15:26:25.061Z,112.50
2022-08-20T15:27:27.193Z,112.50
2022-08-20T15:28:28.587Z,106.87
2022-08-20T15:29:30.817Z,106.87
2022-08-20T15:30:31.996Z,101.25
2022-08-20T15:31:33.673Z,95.62
2022-08-20T15:32:36.006Z,95.62
2022-08-20T15:33:37.624Z,90.00
2022-08-20T15:34:39.768Z,90.00
2022-08-20T15:35:41.949Z,90.00
2022-08-20T15:36:43.070Z,84.37
2022-08-20T15:37:50.056Z,84.37
2022-08-20T15:38:45.270Z,84.37
2022-08-20T15:39:47.492Z,84.37
2022-08-20T15:40:49.654Z,84.37
2022-08-20T15:41:51.772Z,84.37
2022-08-20T15:42:53.047Z,84.37
2022-08-20T15:44:00.380Z,84.37
2022-08-20T15:44:55.700Z,90.00
2022-08-20T15:45:58.030Z,95.62
2022-08-20T15:47:05.049Z,101.25
2022-08-20T15:48:00.261Z,101.25
2022-08-20T15:49:02.392Z,101.25
2022-08-20T15:50:03.818Z,101.25
2022-08-20T15:51:05.068Z,95.62
2022-08-20T15:52:06.053Z,95.62
2022-08-20T15:53:14.267Z,90.00
2022-08-20T15:54:09.601Z,84.37
2022-08-20T15:55:10.555Z,78.75
2022-08-20T15:56:12.680Z,78.75
2022-08-20T15:57:13.842Z,78.75
2022-08-20T15:58:15.002Z,78.75
2022-08-20T15:59:17.123Z,73.12
2022-08-20T16:00:19.243Z,67.50
2022-08-20T16:01:24.270Z,61.87
2022-08-20T16:02:25.817Z,56.25
2022-08-20T16:03:24.668Z,50.62
2022-08-20T16:04:26.786Z,45.00
2022-08-20T16:05:27.982Z,39.37
2022-08-20T16:06:28.933Z,33.75
2022-08-20T16:07:31.278Z,39.37
2022-08-20T16:08:33.496Z,45.00
2022-08-20T16:09:34.473Z,39.37
2022-08-20T16:10:36.594Z,33.75
2022-08-20T16:11:37.854Z,28.12
2022-08-20T16:12:44.836Z,22.50
2022-08-20T16:13:41.122Z,16.87
2022-08-20T16:14:43.273Z,11.25
2022-08-20T16:15:49.397Z,11.25
2022-08-20T16:17:48.963Z,16.87
2022-08-20T16:18:49.929Z,16.87
2022-08-20T16:19:52.105Z,28.12
2022-08-20T16:20:53.763Z,33.75
2022-08-20T16:21:57.911Z,39.37
2022-08-20T16:22:57.992Z,45.00
2022-08-20T16:23:59.256Z,45.00
2022-08-20T16:25:00.408Z,45.00
2022-08-20T16:26:02.045Z,50.62
2022-08-20T16:27:04.374Z,50.62
2022-08-20T16:28:06.494Z,50.62
2022-08-20T16:29:14.482Z,50.62
2022-08-20T16:30:09.616Z,50.62
2022-08-20T16:31:13.848Z,50.62
2022-08-20T16:32:13.936Z,50.62
2022-08-20T16:33:15.121Z,50.62
2022-08-20T16:34:33.846Z,50.62
2022-08-20T16:35:18.625Z,50.62
2022-08-20T16:36:19.805Z,50.62
2022-08-20T16:37:21.051Z,50.62
2022-08-20T16:38:22.204Z,50.62
2022-08-20T16:39:24.526Z,50.62
2022-08-20T16:40:25.686Z,50.62
2022-08-20T16:41:26.646Z,45.00
2022-08-20T16:42:28.766Z,45.00
2022-08-20T16:43:30.077Z,45.00
2022-08-20T16:44:31.034Z,45.00
2022-08-20T16:45:31.992Z,45.00
2022-08-20T16:46:37.391Z,39.37
2022-08-20T16:47:34.209Z,39.37
2022-08-20T16:48:41.730Z,39.37
2022-08-20T16:49:42.967Z,39.37
2022-08-20T16:50:38.965Z,39.37
2022-08-20T16:51:40.170Z,39.37
2022-08-20T16:52:41.392Z,39.37
2022-08-20T16:53:43.520Z,39.37
2022-08-20T16:54:45.659Z,39.37
2022-08-20T16:55:52.954Z,39.37
2022-08-20T16:56:48.087Z,39.37
2022-08-20T16:58:51.942Z,39.37
2022-08-20T17:00:00.159Z,39.37
2022-08-20T17:00:55.375Z,39.37
2022-08-20T17:01:56.606Z,39.37
2022-08-20T17:02:58.302Z,39.37
2022-08-20T17:03:59.520Z,39.37
2022-08-20T17:05:00.518Z,39.37
2022-08-20T17:06:02.529Z,39.37
2022-08-20T17:07:03.652Z,39.37
2022-08-20T17:08:05.081Z,39.37
2022-08-20T17:10:08.016Z,39.37
2022-08-20T17:11:09.966Z,39.37
2022-08-20T17:12:12.099Z,39.37
2022-08-20T17:13:19.894Z,39.37
2022-08-20T17:14:21.067Z,33.75
2022-08-20T17:15:16.949Z,33.75
2022-08-20T17:16:25.527Z,33.75
2022-08-20T17:17:20.860Z,33.75
2022-08-20T17:18:22.993Z,33.75
2022-08-20T17:19:24.195Z,33.75
2022-08-20T17:20:25.935Z,33.75
2022-08-20T17:21:28.030Z,33.75
2022-08-20T17:22:29.682Z,33.75
2022-08-20T17:23:40.548Z,33.75
2022-08-20T17:24:34.254Z,28.12
2022-08-20T17:25:34.790Z,28.12
2022-08-20T17:26:35.763Z,28.12